sensor_id;sensor_type;location;lat;lon;timestamp;temperature;humidity
2054;DHT22;1032;52.542;13.440;2022-12-16T00:00:11;-3.10;99.90
2054;DHT22;1032;52.542;13.440;2022-12-16T00:02:38;-3.00;99.90
2054;DHT22;1032;52.542;13.440;2022-12-16T00:05:07;-3.90;99.90
2054;DHT22;1032;52.542;13.440;2022-12-16T00:07:34;-3.20;99.90
2054;DHT22;1032;52.542;13.440;2022-12-16T00:10:00;-3.10;99.90
2054;DHT22;1032;52.542;13.440;2022-12-16T00:12:27;-3.20;99.90
2054;DHT22;1032;52.542;13.440;2022-12-16T00:14:53;-3.10;99.90
2054;DHT22;1032;52.542;13.440;2022-12-16T00:17:20;-3.60;99.90
2054;DHT22;1032;52.542;13.440;2022-12-16T00:19:47;-3.50;99.90
2054;DHT22;1032;52.542;13.440;2022-12-16T00:22:15;-3.50;99.90
2054;DHT22;1032;52.542;13.440;2022-12-16T00:24:41;-3.80;99.90
2054;DHT22;1032;52.542;13.440;2022-12-16T00:27:08;-3.30;99.90
2054;DHT22;1032;52.542;13.440;2022-12-16T00:29:35;-3.50;99.90
2054;DHT22;1032;52.542;13.440;2022-12-16T00:32:01;-3.40;99.90
2054;DHT22;1032;52.542;13.440;2022-12-16T00:34:28;-3.30;99.90
2054;DHT22;1032;52.542;13.440;2022-12-16T00:36:55;-3.60;99.90
2054;DHT22;1032;52.542;13.440;2022-12-16T00:39:23;-3.40;99.90
2054;DHT22;1032;52.542;13.440;2022-12-16T00:41:49;-3.40;99.90
2054;DHT22;1032;52.542;13.440;2022-12-16T00:44:16;-3.50;99.90
2054;DHT22;1032;52.542;13.440;2022-12-16T00:46:43;-3.40;99.90
2054;DHT22;1032;52.542;13.440;2022-12-16T00:49:09;-2.90;99.90
2054;DHT22;1032;52.542;13.440;2022-12-16T00:51:36;-3.30;99.90
2054;DHT22;1032;52.542;13.440;2022-12-16T00:54:03;-3.50;99.90
2054;DHT22;1032;52.542;13.440;2022-12-16T00:56:31;-3.30;99.90
2054;DHT22;1032;52.542;13.440;2022-12-16T00:58:57;-3.40;99.90
2054;DHT22;1032;52.542;13.440;2022-12-16T01:01:24;-3.30;99.90
2054;DHT22;1032;52.542;13.440;2022-12-16T01:03:51;-3.50;99.90
2054;DHT22;1032;52.542;13.440;2022-12-16T01:06:17;-3.50;99.90
2054;DHT22;1032;52.542;13.440;2022-12-16T01:08:44;-3.70;99.90
2054;DHT22;1032;52.542;13.440;2022-12-16T01:11:13;-3.60;99.90
2054;DHT22;1032;52.542;13.440;2022-12-16T01:13:41;-3.30;99.90
2054;DHT22;1032;52.542;13.440;2022-12-16T01:16:08;-3.30;99.90
2054;DHT22;1032;52.542;13.440;2022-12-16T01:18:35;-3.20;99.90
2054;DHT22;1032;52.542;13.440;2022-12-16T01:21:03;-3.60;99.90
2054;DHT22;1032;52.542;13.440;2022-12-16T01:23:30;-3.50;99.90
2054;DHT22;1032;52.542;13.440;2022-12-16T01:25:58;-3.50;99.90
2054;DHT22;1032;52.542;13.440;2022-12-16T01:28:25;-4.20;99.90
2054;DHT22;1032;52.542;13.440;2022-12-16T01:30:55;-3.50;99.90
2054;DHT22;1032;52.542;13.440;2022-12-16T01:33:26;-3.40;99.90
2054;DHT22;1032;52.542;13.440;2022-12-16T01:35:58;-3.40;99.90
2054;DHT22;1032;52.542;13.440;2022-12-16T01:38:25;-3.20;99.90
2054;DHT22;1032;52.542;13.440;2022-12-16T01:40:51;-3.00;99.90
2054;DHT22;1032;52.542;13.440;2022-12-16T01:43:21;-3.50;99.90
2054;DHT22;1032;52.542;13.440;2022-12-16T01:45:49;-3.40;99.90
2054;DHT22;1032;52.542;13.440;2022-12-16T01:48:21;-3.40;99.90
2054;DHT22;1032;52.542;13.440;2022-12-16T01:51:01;-3.70;99.90
2054;DHT22;1032;52.542;13.440;2022-12-16T01:53:28;-3.80;99.90
2054;DHT22;1032;52.542;13.440;2022-12-16T01:55:56;-3.70;99.90
2054;DHT22;1032;52.542;13.440;2022-12-16T01:58:28;-4.40;99.90
2054;DHT22;1032;52.542;13.440;2022-12-16T02:00:56;-3.40;99.90
2054;DHT22;1032;52.542;13.440;2022-12-16T02:03:25;-3.60;99.90
2054;DHT22;1032;52.542;13.440;2022-12-16T02:05:52;-3.50;99.90
2054;DHT22;1032;52.542;13.440;2022-12-16T02:08:19;-3.80;99.90
2054;DHT22;1032;52.542;13.440;2022-12-16T02:11:00;-3.90;99.90
2054;DHT22;1032;52.542;13.440;2022-12-16T02:13:38;-3.60;99.90
2054;DHT22;1032;52.542;13.440;2022-12-16T02:16:12;-3.50;99.90
2054;DHT22;1032;52.542;13.440;2022-12-16T02:18:52;-3.90;99.90
2054;DHT22;1032;52.542;13.440;2022-12-16T02:21:38;-3.50;99.90
2054;DHT22;1032;52.542;13.440;2022-12-16T02:24:35;-3.90;99.90
2054;DHT22;1032;52.542;13.440;2022-12-16T02:27:47;-3.90;99.90
2054;DHT22;1032;52.542;13.440;2022-12-16T02:33:17;-3.90;99.90
2054;DHT22;1032;52.542;13.440;2022-12-16T02:35:51;-3.60;99.90
2054;DHT22;1032;52.542;13.440;2022-12-16T02:38:23;-4.10;99.90
2054;DHT22;1032;52.542;13.440;2022-12-16T02:40:56;-4.40;99.90
2054;DHT22;1032;52.542;13.440;2022-12-16T02:43:40;-3.80;99.90
2054;DHT22;1032;52.542;13.440;2022-12-16T02:46:11;-4.00;99.90
2054;DHT22;1032;52.542;13.440;2022-12-16T02:48:38;-4.00;99.90
2054;DHT22;1032;52.542;13.440;2022-12-16T02:51:05;-3.30;99.90
2054;DHT22;1032;52.542;13.440;2022-12-16T02:53:34;-4.10;99.90
2054;DHT22;1032;52.542;13.440;2022-12-16T02:56:05;-4.10;99.90
2054;DHT22;1032;52.542;13.440;2022-12-16T02:58:56;-4.20;99.90
2054;DHT22;1032;52.542;13.440;2022-12-16T03:01:33;-4.10;99.90
2054;DHT22;1032;52.542;13.440;2022-12-16T03:04:02;-3.80;99.90
2054;DHT22;1032;52.542;13.440;2022-12-16T03:06:31;-4.10;99.90
2054;DHT22;1032;52.542;13.440;2022-12-16T03:09:02;-4.10;99.90
2054;DHT22;1032;52.542;13.440;2022-12-16T03:11:31;-4.10;99.90
2054;DHT22;1032;52.542;13.440;2022-12-16T03:13:58;-4.10;99.90
2054;DHT22;1032;52.542;13.440;2022-12-16T03:16:30;-3.90;99.90
2054;DHT22;1032;52.542;13.440;2022-12-16T03:19:00;-4.10;99.90
2054;DHT22;1032;52.542;13.440;2022-12-16T03:21:31;-4.20;99.90
2054;DHT22;1032;52.542;13.440;2022-12-16T03:24:00;-4.80;99.90
2054;DHT22;1032;52.542;13.440;2022-12-16T03:26:31;-4.30;99.90
2054;DHT22;1032;52.542;13.440;2022-12-16T03:29:01;-4.10;99.90
2054;DHT22;1032;52.542;13.440;2022-12-16T03:31:42;-4.80;99.90
2054;DHT22;1032;52.542;13.440;2022-12-16T03:34:17;-4.20;99.90
2054;DHT22;1032;52.542;13.440;2022-12-16T03:36:50;-4.20;99.90
2054;DHT22;1032;52.542;13.440;2022-12-16T03:39:19;-3.90;99.90
2054;DHT22;1032;52.542;13.440;2022-12-16T03:41:49;-4.40;99.90
2054;DHT22;1032;52.542;13.440;2022-12-16T03:44:16;-4.80;99.90
2054;DHT22;1032;52.542;13.440;2022-12-16T03:46:44;-4.20;99.90
2054;DHT22;1032;52.542;13.440;2022-12-16T03:49:11;-4.10;99.90
2054;DHT22;1032;52.542;13.440;2022-12-16T03:51:38;-4.90;99.90
2054;DHT22;1032;52.542;13.440;2022-12-16T03:54:04;-4.30;99.90
2054;DHT22;1032;52.542;13.440;2022-12-16T03:56:31;-4.40;99.90
2054;DHT22;1032;52.542;13.440;2022-12-16T03:58:57;-4.40;99.90
2054;DHT22;1032;52.542;13.440;2022-12-16T04:01:24;-4.30;99.90
2054;DHT22;1032;52.542;13.440;2022-12-16T04:03:52;-4.20;99.90
2054;DHT22;1032;52.542;13.440;2022-12-16T04:06:19;-4.40;99.90
2054;DHT22;1032;52.542;13.440;2022-12-16T04:08:46;-4.20;99.90
2054;DHT22;1032;52.542;13.440;2022-12-16T04:11:14;-4.40;99.90
2054;DHT22;1032;52.542;13.440;2022-12-16T04:13:58;-4.00;99.90
2054;DHT22;1032;52.542;13.440;2022-12-16T04:16:43;-4.10;99.90
2054;DHT22;1032;52.542;13.440;2022-12-16T04:19:30;-4.80;99.90
2054;DHT22;1032;52.542;13.440;2022-12-16T04:22:18;-4.30;99.90
2054;DHT22;1032;52.542;13.440;2022-12-16T04:25:07;-4.10;99.90
2054;DHT22;1032;52.542;13.440;2022-12-16T04:27:35;-4.80;99.90
2054;DHT22;1032;52.542;13.440;2022-12-16T04:30:01;-4.00;99.90
2054;DHT22;1032;52.542;13.440;2022-12-16T04:32:49;-4.30;99.90
2054;DHT22;1032;52.542;13.440;2022-12-16T04:35:35;-4.20;99.90
2054;DHT22;1032;52.542;13.440;2022-12-16T04:38:19;-4.90;99.90
2054;DHT22;1032;52.542;13.440;2022-12-16T04:41:04;-4.20;99.90
2054;DHT22;1032;52.542;13.440;2022-12-16T04:43:48;-4.30;99.90
2054;DHT22;1032;52.542;13.440;2022-12-16T04:46:32;-4.20;99.90
2054;DHT22;1032;52.542;13.440;2022-12-16T04:49:17;-3.90;99.90
2054;DHT22;1032;52.542;13.440;2022-12-16T04:52:03;-4.30;99.90
2054;DHT22;1032;52.542;13.440;2022-12-16T04:54:49;-4.30;99.90
2054;DHT22;1032;52.542;13.440;2022-12-16T04:57:34;-4.30;99.90
2054;DHT22;1032;52.542;13.440;2022-12-16T05:00:21;-4.30;99.90
2054;DHT22;1032;52.542;13.440;2022-12-16T05:03:05;-4.40;99.90
2054;DHT22;1032;52.542;13.440;2022-12-16T05:05:49;-4.30;99.90
2054;DHT22;1032;52.542;13.440;2022-12-16T05:08:35;-4.30;99.90
2054;DHT22;1032;52.542;13.440;2022-12-16T05:11:20;-4.30;99.90
2054;DHT22;1032;52.542;13.440;2022-12-16T05:14:04;-4.20;99.90
2054;DHT22;1032;52.542;13.440;2022-12-16T05:16:48;-4.30;99.90
2054;DHT22;1032;52.542;13.440;2022-12-16T05:19:33;-4.20;99.90
2054;DHT22;1032;52.542;13.440;2022-12-16T05:22:17;-4.30;99.90
2054;DHT22;1032;52.542;13.440;2022-12-16T05:25:04;-4.40;99.90
2054;DHT22;1032;52.542;13.440;2022-12-16T05:27:57;-4.50;99.90
2054;DHT22;1032;52.542;13.440;2022-12-16T05:30:41;-4.40;99.90
2054;DHT22;1032;52.542;13.440;2022-12-16T05:33:22;-4.40;99.90
2054;DHT22;1032;52.542;13.440;2022-12-16T05:36:07;-4.40;99.90
2054;DHT22;1032;52.542;13.440;2022-12-16T05:38:52;-4.40;99.90
2054;DHT22;1032;52.542;13.440;2022-12-16T05:41:38;-4.20;99.90
2054;DHT22;1032;52.542;13.440;2022-12-16T05:44:22;-4.40;99.90
2054;DHT22;1032;52.542;13.440;2022-12-16T05:47:07;-4.30;99.90
2054;DHT22;1032;52.542;13.440;2022-12-16T05:49:51;-4.20;99.90
2054;DHT22;1032;52.542;13.440;2022-12-16T05:52:36;-4.60;99.90
2054;DHT22;1032;52.542;13.440;2022-12-16T05:55:20;-4.30;99.90
2054;DHT22;1032;52.542;13.440;2022-12-16T05:58:06;-4.60;99.90
2054;DHT22;1032;52.542;13.440;2022-12-16T06:00:50;-4.30;99.90
2054;DHT22;1032;52.542;13.440;2022-12-16T06:03:35;-4.40;99.90
2054;DHT22;1032;52.542;13.440;2022-12-16T06:06:20;-4.20;99.90
2054;DHT22;1032;52.542;13.440;2022-12-16T06:09:04;-4.50;99.90
2054;DHT22;1032;52.542;13.440;2022-12-16T06:11:49;-4.40;99.90
2054;DHT22;1032;52.542;13.440;2022-12-16T06:14:34;-4.30;99.90
2054;DHT22;1032;52.542;13.440;2022-12-16T06:17:20;-5.10;99.90
2054;DHT22;1032;52.542;13.440;2022-12-16T06:20:05;-4.50;99.90
2054;DHT22;1032;52.542;13.440;2022-12-16T06:22:52;-4.40;99.90
2054;DHT22;1032;52.542;13.440;2022-12-16T06:25:36;-4.20;99.90
2054;DHT22;1032;52.542;13.440;2022-12-16T06:28:21;-4.40;99.90
2054;DHT22;1032;52.542;13.440;2022-12-16T06:31:07;-4.30;99.90
2054;DHT22;1032;52.542;13.440;2022-12-16T06:33:56;-4.30;99.90
2054;DHT22;1032;52.542;13.440;2022-12-16T06:36:40;-4.40;99.90
2054;DHT22;1032;52.542;13.440;2022-12-16T06:39:25;-4.30;99.90
2054;DHT22;1032;52.542;13.440;2022-12-16T06:42:09;-4.30;99.90
2054;DHT22;1032;52.542;13.440;2022-12-16T06:44:54;-4.30;99.90
2054;DHT22;1032;52.542;13.440;2022-12-16T06:47:41;-4.70;99.90
2054;DHT22;1032;52.542;13.440;2022-12-16T06:50:27;-4.40;99.90
2054;DHT22;1032;52.542;13.440;2022-12-16T06:53:11;-4.50;99.90
2054;DHT22;1032;52.542;13.440;2022-12-16T06:55:55;-4.40;99.90
2054;DHT22;1032;52.542;13.440;2022-12-16T06:58:40;-4.40;99.90
2054;DHT22;1032;52.542;13.440;2022-12-16T07:01:24;-5.00;99.90
2054;DHT22;1032;52.542;13.440;2022-12-16T07:04:10;-5.30;99.90
2054;DHT22;1032;52.542;13.440;2022-12-16T07:06:54;-4.40;99.90
2054;DHT22;1032;52.542;13.440;2022-12-16T07:09:41;-4.30;99.90
2054;DHT22;1032;52.542;13.440;2022-12-16T07:12:25;-4.40;99.90
2054;DHT22;1032;52.542;13.440;2022-12-16T07:15:10;-4.60;99.90
2054;DHT22;1032;52.542;13.440;2022-12-16T07:17:55;-4.30;99.90
2054;DHT22;1032;52.542;13.440;2022-12-16T07:20:37;-5.20;99.90
2054;DHT22;1032;52.542;13.440;2022-12-16T07:23:21;-4.30;99.90
2054;DHT22;1032;52.542;13.440;2022-12-16T07:26:05;-4.50;99.90
2054;DHT22;1032;52.542;13.440;2022-12-16T07:28:50;-4.50;99.90
2054;DHT22;1032;52.542;13.440;2022-12-16T07:31:34;-4.50;99.90
2054;DHT22;1032;52.542;13.440;2022-12-16T07:34:19;-4.50;99.90
2054;DHT22;1032;52.542;13.440;2022-12-16T07:37:13;-4.50;99.90
2054;DHT22;1032;52.542;13.440;2022-12-16T07:39:58;-4.40;99.90
2054;DHT22;1032;52.542;13.440;2022-12-16T07:42:45;-4.40;99.90
2054;DHT22;1032;52.542;13.440;2022-12-16T07:45:29;-4.30;99.90
2054;DHT22;1032;52.542;13.440;2022-12-16T07:48:14;-4.40;99.90
2054;DHT22;1032;52.542;13.440;2022-12-16T07:50:58;-4.20;99.90
2054;DHT22;1032;52.542;13.440;2022-12-16T07:53:44;-4.30;99.90
2054;DHT22;1032;52.542;13.440;2022-12-16T07:56:28;-4.40;99.90
2054;DHT22;1032;52.542;13.440;2022-12-16T07:59:12;-4.50;99.90
2054;DHT22;1032;52.542;13.440;2022-12-16T08:01:57;-4.20;99.90
2054;DHT22;1032;52.542;13.440;2022-12-16T08:04:41;-4.30;99.90
2054;DHT22;1032;52.542;13.440;2022-12-16T08:07:25;-4.40;99.90
2054;DHT22;1032;52.542;13.440;2022-12-16T08:10:11;-4.80;99.90
2054;DHT22;1032;52.542;13.440;2022-12-16T08:12:59;-4.30;99.90
2054;DHT22;1032;52.542;13.440;2022-12-16T08:15:44;-4.40;99.90
2054;DHT22;1032;52.542;13.440;2022-12-16T08:18:28;-4.50;99.90
2054;DHT22;1032;52.542;13.440;2022-12-16T08:21:21;-4.30;99.90
2054;DHT22;1032;52.542;13.440;2022-12-16T08:24:05;-4.20;99.90
2054;DHT22;1032;52.542;13.440;2022-12-16T08:26:51;-4.80;99.90
2054;DHT22;1032;52.542;13.440;2022-12-16T08:29:35;-4.10;99.90
2054;DHT22;1032;52.542;13.440;2022-12-16T08:32:20;-4.00;99.90
2054;DHT22;1032;52.542;13.440;2022-12-16T08:35:05;-3.80;99.90
2054;DHT22;1032;52.542;13.440;2022-12-16T08:37:53;-3.80;99.90
2054;DHT22;1032;52.542;13.440;2022-12-16T08:40:38;-3.70;99.90
2054;DHT22;1032;52.542;13.440;2022-12-16T08:43:24;-3.90;99.90
2054;DHT22;1032;52.542;13.440;2022-12-16T08:46:08;-3.70;99.90
2054;DHT22;1032;52.542;13.440;2022-12-16T08:48:52;-3.10;99.90
2054;DHT22;1032;52.542;13.440;2022-12-16T08:51:42;-3.70;99.90
2054;DHT22;1032;52.542;13.440;2022-12-16T08:54:26;-3.10;99.90
2054;DHT22;1032;52.542;13.440;2022-12-16T08:57:11;-3.20;99.90
2054;DHT22;1032;52.542;13.440;2022-12-16T08:59:56;-3.10;99.90
2054;DHT22;1032;52.542;13.440;2022-12-16T09:02:40;-3.30;99.90
2054;DHT22;1032;52.542;13.440;2022-12-16T09:05:25;-2.80;99.90
2054;DHT22;1032;52.542;13.440;2022-12-16T09:08:09;-2.70;99.90
2054;DHT22;1032;52.542;13.440;2022-12-16T09:10:53;-2.60;99.90
2054;DHT22;1032;52.542;13.440;2022-12-16T09:13:37;-2.60;99.90
2054;DHT22;1032;52.542;13.440;2022-12-16T09:16:22;-2.60;99.90
2054;DHT22;1032;52.542;13.440;2022-12-16T09:19:07;-2.50;99.90
2054;DHT22;1032;52.542;13.440;2022-12-16T09:21:51;-2.50;99.90
2054;DHT22;1032;52.542;13.440;2022-12-16T09:24:35;-2.60;99.90
2054;DHT22;1032;52.542;13.440;2022-12-16T09:27:20;-2.70;99.90
2054;DHT22;1032;52.542;13.440;2022-12-16T09:30:05;-2.80;99.90
2054;DHT22;1032;52.542;13.440;2022-12-16T09:32:51;-2.40;99.90
2054;DHT22;1032;52.542;13.440;2022-12-16T09:35:35;-2.40;99.90
2054;DHT22;1032;52.542;13.440;2022-12-16T09:38:19;-2.40;99.90
2054;DHT22;1032;52.542;13.440;2022-12-16T09:41:24;-2.20;99.90
2054;DHT22;1032;52.542;13.440;2022-12-16T09:44:18;-2.10;99.90
2054;DHT22;1032;52.542;13.440;2022-12-16T09:47:09;-2.40;99.90
2054;DHT22;1032;52.542;13.440;2022-12-16T09:49:56;-2.20;99.90
2054;DHT22;1032;52.542;13.440;2022-12-16T09:52:43;-2.10;99.90
2054;DHT22;1032;52.542;13.440;2022-12-16T09:55:32;-1.90;99.90
2054;DHT22;1032;52.542;13.440;2022-12-16T09:58:19;-2.50;99.90
2054;DHT22;1032;52.542;13.440;2022-12-16T10:01:05;-2.70;99.90
2054;DHT22;1032;52.542;13.440;2022-12-16T10:03:49;-2.10;99.90
2054;DHT22;1032;52.542;13.440;2022-12-16T10:06:41;-1.80;99.90
2054;DHT22;1032;52.542;13.440;2022-12-16T10:09:29;-1.90;99.90
2054;DHT22;1032;52.542;13.440;2022-12-16T10:12:23;-1.90;99.90
2054;DHT22;1032;52.542;13.440;2022-12-16T10:15:17;-1.90;99.90
2054;DHT22;1032;52.542;13.440;2022-12-16T10:18:09;-1.60;99.90
2054;DHT22;1032;52.542;13.440;2022-12-16T10:20:56;-1.80;99.90
2054;DHT22;1032;52.542;13.440;2022-12-16T10:23:46;-1.50;99.90
2054;DHT22;1032;52.542;13.440;2022-12-16T10:26:41;-1.40;99.90
2054;DHT22;1032;52.542;13.440;2022-12-16T10:29:38;-1.80;99.90
2054;DHT22;1032;52.542;13.440;2022-12-16T10:32:38;-1.20;99.90
2054;DHT22;1032;52.542;13.440;2022-12-16T10:35:34;-1.30;99.90
2054;DHT22;1032;52.542;13.440;2022-12-16T10:38:21;-1.30;99.90
2054;DHT22;1032;52.542;13.440;2022-12-16T10:41:09;-1.50;99.90
2054;DHT22;1032;52.542;13.440;2022-12-16T10:43:55;-2.10;99.90
2054;DHT22;1032;52.542;13.440;2022-12-16T10:46:40;-1.10;99.90
2054;DHT22;1032;52.542;13.440;2022-12-16T10:49:24;-1.30;99.90
2054;DHT22;1032;52.542;13.440;2022-12-16T10:52:11;-1.00;99.90
2054;DHT22;1032;52.542;13.440;2022-12-16T10:55:04;-1.40;99.90
2054;DHT22;1032;52.542;13.440;2022-12-16T10:58:00;-0.80;99.90
2054;DHT22;1032;52.542;13.440;2022-12-16T11:00:47;-1.30;99.90
2054;DHT22;1032;52.542;13.440;2022-12-16T11:03:33;-1.10;99.90
2054;DHT22;1032;52.542;13.440;2022-12-16T11:06:22;-0.90;99.90
2054;DHT22;1032;52.542;13.440;2022-12-16T11:09:20;-1.20;99.90
2054;DHT22;1032;52.542;13.440;2022-12-16T11:12:21;-1.10;99.90
2054;DHT22;1032;52.542;13.440;2022-12-16T11:15:28;-1.10;99.90
2054;DHT22;1032;52.542;13.440;2022-12-16T11:18:14;-1.80;99.90
2054;DHT22;1032;52.542;13.440;2022-12-16T11:21:10;-0.90;99.90
2054;DHT22;1032;52.542;13.440;2022-12-16T11:24:11;-1.00;99.90
2054;DHT22;1032;52.542;13.440;2022-12-16T11:26:56;-1.50;99.90
2054;DHT22;1032;52.542;13.440;2022-12-16T11:29:54;-0.70;99.90
2054;DHT22;1032;52.542;13.440;2022-12-16T11:32:43;-0.80;99.90
2054;DHT22;1032;52.542;13.440;2022-12-16T11:35:31;-0.70;99.90
2054;DHT22;1032;52.542;13.440;2022-12-16T11:38:20;-0.90;99.90
2054;DHT22;1032;52.542;13.440;2022-12-16T11:41:07;-1.00;99.90
2054;DHT22;1032;52.542;13.440;2022-12-16T11:44:12;-0.60;99.90
2054;DHT22;1032;52.542;13.440;2022-12-16T11:47:02;-0.30;99.90
2054;DHT22;1032;52.542;13.440;2022-12-16T11:49:50;-0.50;99.90
2054;DHT22;1032;52.542;13.440;2022-12-16T11:52:35;-0.30;99.90
2054;DHT22;1032;52.542;13.440;2022-12-16T11:55:23;-0.40;99.90
2054;DHT22;1032;52.542;13.440;2022-12-16T11:58:16;-0.30;99.90
2054;DHT22;1032;52.542;13.440;2022-12-16T12:01:07;-0.50;99.90
2054;DHT22;1032;52.542;13.440;2022-12-16T12:03:53;-0.20;99.90
2054;DHT22;1032;52.542;13.440;2022-12-16T12:06:55;-0.30;99.90
2054;DHT22;1032;52.542;13.440;2022-12-16T12:09:47;-0.20;99.90
2054;DHT22;1032;52.542;13.440;2022-12-16T12:12:40;-1.00;99.90
2054;DHT22;1032;52.542;13.440;2022-12-16T12:15:31;-0.30;99.90
2054;DHT22;1032;52.542;13.440;2022-12-16T12:18:23;-0.50;99.90
2054;DHT22;1032;52.542;13.440;2022-12-16T12:21:17;-0.20;99.90
2054;DHT22;1032;52.542;13.440;2022-12-16T12:24:13;-0.40;99.90
2054;DHT22;1032;52.542;13.440;2022-12-16T12:27:05;-0.10;99.90
2054;DHT22;1032;52.542;13.440;2022-12-16T12:30:00;-0.20;99.90
2054;DHT22;1032;52.542;13.440;2022-12-16T12:32:52;0.00;99.90
2054;DHT22;1032;52.542;13.440;2022-12-16T12:35:49;-0.30;99.90
2054;DHT22;1032;52.542;13.440;2022-12-16T12:38:42;-0.20;99.90
2054;DHT22;1032;52.542;13.440;2022-12-16T12:41:40;0.00;99.90
2054;DHT22;1032;52.542;13.440;2022-12-16T12:44:34;0.10;99.90
2054;DHT22;1032;52.542;13.440;2022-12-16T12:47:22;-0.20;99.90
2054;DHT22;1032;52.542;13.440;2022-12-16T12:50:08;-0.50;99.90
2054;DHT22;1032;52.542;13.440;2022-12-16T12:53:10;0.30;99.90
2054;DHT22;1032;52.542;13.440;2022-12-16T12:56:04;0.30;99.90
2054;DHT22;1032;52.542;13.440;2022-12-16T12:58:55;0.20;99.90
2054;DHT22;1032;52.542;13.440;2022-12-16T13:01:43;0.00;99.90
2054;DHT22;1032;52.542;13.440;2022-12-16T13:04:29;0.20;99.90
2054;DHT22;1032;52.542;13.440;2022-12-16T13:07:13;0.10;99.90
2054;DHT22;1032;52.542;13.440;2022-12-16T13:10:30;-0.50;99.90
2054;DHT22;1032;52.542;13.440;2022-12-16T13:13:28;0.30;99.90
2054;DHT22;1032;52.542;13.440;2022-12-16T13:19:42;-0.10;99.90
2054;DHT22;1032;52.542;13.440;2022-12-16T13:22:28;0.30;99.90
2054;DHT22;1032;52.542;13.440;2022-12-16T13:25:37;0.20;99.90
2054;DHT22;1032;52.542;13.440;2022-12-16T13:28:23;0.00;99.90
2054;DHT22;1032;52.542;13.440;2022-12-16T13:31:20;0.10;99.90
2054;DHT22;1032;52.542;13.440;2022-12-16T13:34:12;0.10;99.90
2054;DHT22;1032;52.542;13.440;2022-12-16T13:37:05;-0.20;99.90
2054;DHT22;1032;52.542;13.440;2022-12-16T13:40:00;0.10;99.90
2054;DHT22;1032;52.542;13.440;2022-12-16T13:42:51;-0.30;99.90
2054;DHT22;1032;52.542;13.440;2022-12-16T13:45:38;0.10;99.90
2054;DHT22;1032;52.542;13.440;2022-12-16T13:48:33;-0.30;99.90
2054;DHT22;1032;52.542;13.440;2022-12-16T13:51:54;0.00;99.90
2054;DHT22;1032;52.542;13.440;2022-12-16T13:54:44;-0.10;99.90
2054;DHT22;1032;52.542;13.440;2022-12-16T13:57:31;-0.20;99.90
2054;DHT22;1032;52.542;13.440;2022-12-16T14:00:21;-0.20;99.90
2054;DHT22;1032;52.542;13.440;2022-12-16T14:03:11;0.00;99.90
2054;DHT22;1032;52.542;13.440;2022-12-16T14:05:57;0.10;99.90
2054;DHT22;1032;52.542;13.440;2022-12-16T14:08:43;-0.20;99.90
2054;DHT22;1032;52.542;13.440;2022-12-16T14:11:35;-0.20;99.90
2054;DHT22;1032;52.542;13.440;2022-12-16T14:14:25;-0.20;99.90
2054;DHT22;1032;52.542;13.440;2022-12-16T14:17:16;-0.30;99.90
2054;DHT22;1032;52.542;13.440;2022-12-16T14:20:21;-0.10;99.90
2054;DHT22;1032;52.542;13.440;2022-12-16T14:23:22;-0.10;99.90
2054;DHT22;1032;52.542;13.440;2022-12-16T14:26:10;-0.20;99.90
2054;DHT22;1032;52.542;13.440;2022-12-16T14:28:56;0.00;99.90
2054;DHT22;1032;52.542;13.440;2022-12-16T14:31:42;-0.50;99.90
2054;DHT22;1032;52.542;13.440;2022-12-16T14:34:29;0.00;99.90
2054;DHT22;1032;52.542;13.440;2022-12-16T14:37:16;0.10;99.90
2054;DHT22;1032;52.542;13.440;2022-12-16T14:40:04;-0.20;99.90
2054;DHT22;1032;52.542;13.440;2022-12-16T14:43:01;0.00;99.90
2054;DHT22;1032;52.542;13.440;2022-12-16T14:45:48;0.00;99.90
2054;DHT22;1032;52.542;13.440;2022-12-16T14:48:34;-0.20;99.90
2054;DHT22;1032;52.542;13.440;2022-12-16T14:51:24;0.30;99.90
2054;DHT22;1032;52.542;13.440;2022-12-16T14:54:23;0.40;99.90
2054;DHT22;1032;52.542;13.440;2022-12-16T14:57:12;-0.10;99.90
2054;DHT22;1032;52.542;13.440;2022-12-16T15:00:02;-0.40;99.90
2054;DHT22;1032;52.542;13.440;2022-12-16T15:02:55;-0.20;99.90
2054;DHT22;1032;52.542;13.440;2022-12-16T15:05:41;-0.20;99.90
2054;DHT22;1032;52.542;13.440;2022-12-16T15:08:28;-0.40;99.90
2054;DHT22;1032;52.542;13.440;2022-12-16T15:11:16;-0.10;99.90
2054;DHT22;1032;52.542;13.440;2022-12-16T15:14:02;-0.30;99.90
2054;DHT22;1032;52.542;13.440;2022-12-16T15:16:48;-0.20;99.90
2054;DHT22;1032;52.542;13.440;2022-12-16T15:19:38;-0.30;99.90
2054;DHT22;1032;52.542;13.440;2022-12-16T15:22:24;-0.40;99.90
2054;DHT22;1032;52.542;13.440;2022-12-16T15:25:17;-0.90;99.90
2054;DHT22;1032;52.542;13.440;2022-12-16T15:28:02;-0.20;99.90
2054;DHT22;1032;52.542;13.440;2022-12-16T15:30:46;-0.50;99.90
2054;DHT22;1032;52.542;13.440;2022-12-16T15:33:32;-0.40;99.90
2054;DHT22;1032;52.542;13.440;2022-12-16T15:36:23;-0.40;99.90
2054;DHT22;1032;52.542;13.440;2022-12-16T15:39:10;-0.20;99.90
2054;DHT22;1032;52.542;13.440;2022-12-16T15:41:54;-0.20;99.90
2054;DHT22;1032;52.542;13.440;2022-12-16T15:44:46;-0.40;99.90
2054;DHT22;1032;52.542;13.440;2022-12-16T15:47:33;-0.40;99.90
2054;DHT22;1032;52.542;13.440;2022-12-16T15:50:20;-0.50;99.90
2054;DHT22;1032;52.542;13.440;2022-12-16T15:53:29;-0.30;99.90
2054;DHT22;1032;52.542;13.440;2022-12-16T15:56:19;-0.40;99.90
2054;DHT22;1032;52.542;13.440;2022-12-16T15:59:17;-0.30;99.90
2054;DHT22;1032;52.542;13.440;2022-12-16T16:02:05;-0.50;99.90
2054;DHT22;1032;52.542;13.440;2022-12-16T16:04:52;-0.10;99.90
2054;DHT22;1032;52.542;13.440;2022-12-16T16:07:36;0.00;99.90
2054;DHT22;1032;52.542;13.440;2022-12-16T16:10:23;0.00;99.90
2054;DHT22;1032;52.542;13.440;2022-12-16T16:13:08;-0.20;99.90
2054;DHT22;1032;52.542;13.440;2022-12-16T16:15:52;-0.30;99.90
2054;DHT22;1032;52.542;13.440;2022-12-16T16:18:37;-0.40;99.90
2054;DHT22;1032;52.542;13.440;2022-12-16T16:21:21;-0.30;99.90
2054;DHT22;1032;52.542;13.440;2022-12-16T16:24:06;-0.30;99.90
2054;DHT22;1032;52.542;13.440;2022-12-16T16:26:52;-0.80;99.90
2054;DHT22;1032;52.542;13.440;2022-12-16T16:29:36;-0.40;99.90
2054;DHT22;1032;52.542;13.440;2022-12-16T16:32:20;-0.20;99.90
2054;DHT22;1032;52.542;13.440;2022-12-16T16:35:05;-0.10;99.90
2054;DHT22;1032;52.542;13.440;2022-12-16T16:37:49;0.00;99.90
2054;DHT22;1032;52.542;13.440;2022-12-16T16:40:35;-0.20;99.90
2054;DHT22;1032;52.542;13.440;2022-12-16T16:43:22;-0.10;99.90
2054;DHT22;1032;52.542;13.440;2022-12-16T16:46:20;-0.20;99.90
2054;DHT22;1032;52.542;13.440;2022-12-16T16:49:08;-0.40;99.90
2054;DHT22;1032;52.542;13.440;2022-12-16T16:51:52;-0.60;99.90
2054;DHT22;1032;52.542;13.440;2022-12-16T16:54:37;-0.30;99.90
2054;DHT22;1032;52.542;13.440;2022-12-16T16:57:21;-0.40;99.90
2054;DHT22;1032;52.542;13.440;2022-12-16T17:00:09;-0.40;99.90
2054;DHT22;1032;52.542;13.440;2022-12-16T17:02:53;-0.60;99.90
2054;DHT22;1032;52.542;13.440;2022-12-16T17:05:37;-0.40;99.90
2054;DHT22;1032;52.542;13.440;2022-12-16T17:08:22;-0.60;99.90
2054;DHT22;1032;52.542;13.440;2022-12-16T17:11:15;-0.60;99.90
2054;DHT22;1032;52.542;13.440;2022-12-16T17:14:00;-0.40;99.90
2054;DHT22;1032;52.542;13.440;2022-12-16T17:16:46;-0.40;99.90
2054;DHT22;1032;52.542;13.440;2022-12-16T17:19:26;-0.50;99.90
2054;DHT22;1032;52.542;13.440;2022-12-16T17:22:10;-0.30;99.90
2054;DHT22;1032;52.542;13.440;2022-12-16T17:24:55;-0.40;99.90
2054;DHT22;1032;52.542;13.440;2022-12-16T17:27:42;-0.60;99.90
2054;DHT22;1032;52.542;13.440;2022-12-16T17:30:27;-0.50;99.90
2054;DHT22;1032;52.542;13.440;2022-12-16T17:33:12;-0.50;99.90
2054;DHT22;1032;52.542;13.440;2022-12-16T17:36:10;-0.70;99.90